首页
METAR-TAF:

METAR-TAF

机场 :

瓦加杜古國際機場

瓦加杜古, 布吉納法索

纬度: 12-21N, 经度: 001-31W, 海拔: 316米

当前天气观测

该预报发布于43分钟前的11:00 UTC
风速4节,风向,在东南南转西南之间变化
温度 29°C
湿度 74%
气压 1016 hPa
能见度10公里或以上
多云层高于2000英尺

METAR: DFFD 231100Z 17004KT 140V210 9999 BKN020 29/24 Q1016 TEMPO 4000 SHRA

时间: 11:43 (11:43 UTC)

预报

该预报发布于6小时和43分钟前的05:00 UTC
预报有效从23日的 06点(UTC)到 24日的 12点(UTC)
风速8节,风向西南
能见度10公里或以上
散云层高于2300英尺
几率 30% :
短暂存在
从 23日的 06点(UTC)到 23日的 11点(UTC)
能見度: 4000
多云层高于1300英尺
少量云层高于3600英尺, 积雨云.
雷暴, 阵雨
短暂存在
从 23日的 16点(UTC)到 23日的 24点(UTC)
能見度: 4000
散云层高于2300英尺
少量云层高于3600英尺, 积雨云.
雷暴, 雨,

TAF: DFFD 230500Z 2306/2412 22008KT 9999 SCT023 PROB30 TEMPO 2306/2311 4000 TS SHRA BKN013 FEW036CB TEMPO 2316/2324 4000 TSRA SCT023 FEW036CB

超过4000个机场的气象观测和天气预报(METAR&TAF报告)。

可查询的气象台以黄色和红色小点在地图上表示。

将鼠标移到小点上方,可查看气象台名称。

然后点击查看天气观测和预报。

如需切换地图:点击带黑十字的绿色按钮放大地图;点击带横线的绿色按钮缩小地图;或者点击绿色箭头查看邻近地区的地图。


METAR-TAF: